sensor_id;sensor_type;location;lat;lon;timestamp;temperature;humidity
57753;DHT22;43583;53.132;6.574;2023-03-01T00:01:09;-2.00;99.90
57753;DHT22;43583;53.132;6.574;2023-03-01T00:03:35;-2.00;99.90
57753;DHT22;43583;53.132;6.574;2023-03-01T00:06:02;-2.00;99.90
57753;DHT22;43583;53.132;6.574;2023-03-01T00:08:28;-2.00;99.90
57753;DHT22;43583;53.132;6.574;2023-03-01T00:11:12;-2.00;99.90
57753;DHT22;43583;53.132;6.574;2023-03-01T00:13:38;-2.00;99.90
57753;DHT22;43583;53.132;6.574;2023-03-01T00:16:06;-2.00;99.90
57753;DHT22;43583;53.132;6.574;2023-03-01T00:18:32;-2.10;99.90
57753;DHT22;43583;53.132;6.574;2023-03-01T00:20:58;-2.10;99.90
57753;DHT22;43583;53.132;6.574;2023-03-01T00:23:25;-2.10;99.90
57753;DHT22;43583;53.132;6.574;2023-03-01T00:25:51;-2.10;99.90
57753;DHT22;43583;53.132;6.574;2023-03-01T00:28:17;-2.20;99.90
57753;DHT22;43583;53.132;6.574;2023-03-01T00:30:43;-2.20;99.90
57753;DHT22;43583;53.132;6.574;2023-03-01T00:33:09;-2.20;99.90
57753;DHT22;43583;53.132;6.574;2023-03-01T00:35:35;-2.20;99.90
57753;DHT22;43583;53.132;6.574;2023-03-01T00:38:01;-2.20;99.90
57753;DHT22;43583;53.132;6.574;2023-03-01T00:40:28;-2.30;99.90
57753;DHT22;43583;53.132;6.574;2023-03-01T00:42:54;-2.30;99.90
57753;DHT22;43583;53.132;6.574;2023-03-01T00:45:19;-2.40;99.90
57753;DHT22;43583;53.132;6.574;2023-03-01T00:47:45;-2.60;99.90
57753;DHT22;43583;53.132;6.574;2023-03-01T00:50:11;-2.70;99.90
57753;DHT22;43583;53.132;6.574;2023-03-01T00:52:37;-2.80;99.90
57753;DHT22;43583;53.132;6.574;2023-03-01T00:55:03;-2.90;99.90
57753;DHT22;43583;53.132;6.574;2023-03-01T00:57:29;-2.90;99.90
57753;DHT22;43583;53.132;6.574;2023-03-01T00:59:55;-3.00;99.90
57753;DHT22;43583;53.132;6.574;2023-03-01T01:02:20;-3.10;99.90
57753;DHT22;43583;53.132;6.574;2023-03-01T01:04:46;-3.10;99.90
57753;DHT22;43583;53.132;6.574;2023-03-01T01:07:12;-3.10;99.90
57753;DHT22;43583;53.132;6.574;2023-03-01T01:09:38;-3.10;99.90
57753;DHT22;43583;53.132;6.574;2023-03-01T01:12:04;-3.10;99.90
57753;DHT22;43583;53.132;6.574;2023-03-01T01:14:30;-3.10;99.90
57753;DHT22;43583;53.132;6.574;2023-03-01T01:16:56;-3.10;99.90
57753;DHT22;43583;53.132;6.574;2023-03-01T01:19:22;-3.10;99.90
57753;DHT22;43583;53.132;6.574;2023-03-01T01:21:48;-3.20;99.90
57753;DHT22;43583;53.132;6.574;2023-03-01T01:24:14;-3.20;99.90
57753;DHT22;43583;53.132;6.574;2023-03-01T01:26:40;-3.20;99.90
57753;DHT22;43583;53.132;6.574;2023-03-01T01:29:06;-3.20;99.90
57753;DHT22;43583;53.132;6.574;2023-03-01T01:31:33;-3.10;99.90
57753;DHT22;43583;53.132;6.574;2023-03-01T01:34:00;-3.10;99.90
57753;DHT22;43583;53.132;6.574;2023-03-01T01:36:27;-3.10;99.90
57753;DHT22;43583;53.132;6.574;2023-03-01T01:38:52;-3.10;99.90
57753;DHT22;43583;53.132;6.574;2023-03-01T01:41:18;-3.10;99.90
57753;DHT22;43583;53.132;6.574;2023-03-01T01:43:48;-3.10;99.90
57753;DHT22;43583;53.132;6.574;2023-03-01T01:46:30;-3.10;99.90
57753;DHT22;43583;53.132;6.574;2023-03-01T01:49:07;-3.00;99.90
57753;DHT22;43583;53.132;6.574;2023-03-01T01:51:37;-3.00;99.90
57753;DHT22;43583;53.132;6.574;2023-03-01T01:54:12;-3.10;99.90
57753;DHT22;43583;53.132;6.574;2023-03-01T01:56:43;-3.00;99.90
57753;DHT22;43583;53.132;6.574;2023-03-01T01:59:10;-3.10;99.90
57753;DHT22;43583;53.132;6.574;2023-03-01T02:01:36;-3.10;99.90
57753;DHT22;43583;53.132;6.574;2023-03-01T02:04:02;-3.10;99.90
57753;DHT22;43583;53.132;6.574;2023-03-01T02:06:31;-3.10;99.90
57753;DHT22;43583;53.132;6.574;2023-03-01T02:09:02;-3.10;99.90
57753;DHT22;43583;53.132;6.574;2023-03-01T02:11:30;-3.10;99.90
57753;DHT22;43583;53.132;6.574;2023-03-01T02:13:56;-3.10;99.90
57753;DHT22;43583;53.132;6.574;2023-03-01T02:16:22;-3.10;99.90
57753;DHT22;43583;53.132;6.574;2023-03-01T02:18:49;-3.10;99.90
57753;DHT22;43583;53.132;6.574;2023-03-01T02:23:56;-3.10;99.90
57753;DHT22;43583;53.132;6.574;2023-03-01T02:26:45;-3.10;99.90
57753;DHT22;43583;53.132;6.574;2023-03-01T02:29:12;-3.10;99.90
57753;DHT22;43583;53.132;6.574;2023-03-01T02:31:37;-3.20;99.90
57753;DHT22;43583;53.132;6.574;2023-03-01T02:34:18;-3.20;99.90
57753;DHT22;43583;53.132;6.574;2023-03-01T02:36:49;-3.20;99.90
57753;DHT22;43583;53.132;6.574;2023-03-01T02:39:32;-3.20;99.90
57753;DHT22;43583;53.132;6.574;2023-03-01T02:41:59;-3.20;99.90
57753;DHT22;43583;53.132;6.574;2023-03-01T02:44:25;-3.20;99.90
57753;DHT22;43583;53.132;6.574;2023-03-01T02:46:53;-3.20;99.90
57753;DHT22;43583;53.132;6.574;2023-03-01T02:49:29;-3.20;99.90
57753;DHT22;43583;53.132;6.574;2023-03-01T02:53:07;-3.20;99.90
57753;DHT22;43583;53.132;6.574;2023-03-01T02:55:13;-3.20;99.90
57753;DHT22;43583;53.132;6.574;2023-03-01T02:57:42;-3.30;99.90
57753;DHT22;43583;53.132;6.574;2023-03-01T03:00:12;-3.30;99.90
57753;DHT22;43583;53.132;6.574;2023-03-01T03:02:45;-3.30;99.90
57753;DHT22;43583;53.132;6.574;2023-03-01T03:05:14;-3.30;99.90
57753;DHT22;43583;53.132;6.574;2023-03-01T03:07:42;-3.30;99.90
57753;DHT22;43583;53.132;6.574;2023-03-01T03:10:11;-3.30;99.90
57753;DHT22;43583;53.132;6.574;2023-03-01T03:12:38;-3.30;99.90
57753;DHT22;43583;53.132;6.574;2023-03-01T03:15:05;-3.30;99.90
57753;DHT22;43583;53.132;6.574;2023-03-01T03:17:35;-3.40;99.90
57753;DHT22;43583;53.132;6.574;2023-03-01T03:20:03;-3.40;99.90
57753;DHT22;43583;53.132;6.574;2023-03-01T03:22:29;-3.40;99.90
57753;DHT22;43583;53.132;6.574;2023-03-01T03:24:55;-3.50;99.90
57753;DHT22;43583;53.132;6.574;2023-03-01T03:27:20;-3.50;99.90
57753;DHT22;43583;53.132;6.574;2023-03-01T03:29:46;-3.50;99.90
57753;DHT22;43583;53.132;6.574;2023-03-01T03:32:11;-3.50;99.90
57753;DHT22;43583;53.132;6.574;2023-03-01T03:34:37;-3.50;99.90
57753;DHT22;43583;53.132;6.574;2023-03-01T03:37:02;-3.50;99.90
57753;DHT22;43583;53.132;6.574;2023-03-01T03:39:28;-3.50;99.90
57753;DHT22;43583;53.132;6.574;2023-03-01T03:42:00;-3.50;99.90
57753;DHT22;43583;53.132;6.574;2023-03-01T03:44:25;-3.60;99.90
57753;DHT22;43583;53.132;6.574;2023-03-01T03:46:51;-3.60;99.90
57753;DHT22;43583;53.132;6.574;2023-03-01T03:49:16;-3.70;99.90
57753;DHT22;43583;53.132;6.574;2023-03-01T03:51:42;-3.80;99.90
57753;DHT22;43583;53.132;6.574;2023-03-01T03:54:10;-3.80;99.90
57753;DHT22;43583;53.132;6.574;2023-03-01T03:56:36;-3.80;99.90
57753;DHT22;43583;53.132;6.574;2023-03-01T03:59:01;-3.80;99.90
57753;DHT22;43583;53.132;6.574;2023-03-01T04:01:27;-3.80;99.90
57753;DHT22;43583;53.132;6.574;2023-03-01T04:03:52;-3.80;99.90
57753;DHT22;43583;53.132;6.574;2023-03-01T04:06:19;-3.90;99.90
57753;DHT22;43583;53.132;6.574;2023-03-01T04:08:45;-3.90;99.90
57753;DHT22;43583;53.132;6.574;2023-03-01T04:11:11;-3.80;99.90
57753;DHT22;43583;53.132;6.574;2023-03-01T04:13:55;-3.80;99.90
57753;DHT22;43583;53.132;6.574;2023-03-01T04:16:21;-3.80;99.90
57753;DHT22;43583;53.132;6.574;2023-03-01T04:18:46;-3.80;99.90
57753;DHT22;43583;53.132;6.574;2023-03-01T04:21:13;-3.80;99.90
57753;DHT22;43583;53.132;6.574;2023-03-01T04:23:38;-3.80;99.90
57753;DHT22;43583;53.132;6.574;2023-03-01T04:26:04;-3.80;99.90
57753;DHT22;43583;53.132;6.574;2023-03-01T04:28:31;-3.90;99.90
57753;DHT22;43583;53.132;6.574;2023-03-01T04:31:03;-3.90;99.90
57753;DHT22;43583;53.132;6.574;2023-03-01T04:33:39;-3.90;99.90
57753;DHT22;43583;53.132;6.574;2023-03-01T04:36:06;-3.90;99.90
57753;DHT22;43583;53.132;6.574;2023-03-01T04:38:34;-4.00;99.90
57753;DHT22;43583;53.132;6.574;2023-03-01T04:41:00;-4.00;99.90
57753;DHT22;43583;53.132;6.574;2023-03-01T04:43:26;-4.00;99.90
57753;DHT22;43583;53.132;6.574;2023-03-01T04:45:51;-4.10;99.90
57753;DHT22;43583;53.132;6.574;2023-03-01T04:48:17;-4.00;99.90
57753;DHT22;43583;53.132;6.574;2023-03-01T04:50:42;-4.00;99.90
57753;DHT22;43583;53.132;6.574;2023-03-01T04:53:08;-4.00;99.90
57753;DHT22;43583;53.132;6.574;2023-03-01T04:55:33;-4.10;99.90
57753;DHT22;43583;53.132;6.574;2023-03-01T04:57:59;-4.00;99.90
57753;DHT22;43583;53.132;6.574;2023-03-01T05:00:24;-4.10;99.90
57753;DHT22;43583;53.132;6.574;2023-03-01T05:02:51;-4.00;99.90
57753;DHT22;43583;53.132;6.574;2023-03-01T05:07:56;-4.10;99.90
57753;DHT22;43583;53.132;6.574;2023-03-01T05:10:23;-4.10;99.90
57753;DHT22;43583;53.132;6.574;2023-03-01T05:12:49;-4.10;99.90
57753;DHT22;43583;53.132;6.574;2023-03-01T05:15:15;-4.10;99.90
57753;DHT22;43583;53.132;6.574;2023-03-01T05:17:40;-4.10;99.90
57753;DHT22;43583;53.132;6.574;2023-03-01T05:20:06;-4.10;99.90
57753;DHT22;43583;53.132;6.574;2023-03-01T05:22:35;-4.10;99.90
57753;DHT22;43583;53.132;6.574;2023-03-01T05:25:02;-4.10;99.90
57753;DHT22;43583;53.132;6.574;2023-03-01T05:27:27;-4.10;99.90
57753;DHT22;43583;53.132;6.574;2023-03-01T05:29:55;-4.20;99.90
57753;DHT22;43583;53.132;6.574;2023-03-01T05:32:21;-4.20;99.90
57753;DHT22;43583;53.132;6.574;2023-03-01T05:34:46;-4.20;99.90
57753;DHT22;43583;53.132;6.574;2023-03-01T05:37:13;-4.30;99.90
57753;DHT22;43583;53.132;6.574;2023-03-01T05:39:39;-4.30;99.90
57753;DHT22;43583;53.132;6.574;2023-03-01T05:42:04;-4.30;99.90
57753;DHT22;43583;53.132;6.574;2023-03-01T05:44:30;-4.30;99.90
57753;DHT22;43583;53.132;6.574;2023-03-01T05:46:56;-4.30;99.90
57753;DHT22;43583;53.132;6.574;2023-03-01T05:49:22;-4.30;99.90
57753;DHT22;43583;53.132;6.574;2023-03-01T05:51:52;-4.30;99.90
57753;DHT22;43583;53.132;6.574;2023-03-01T05:54:20;-4.30;99.90
57753;DHT22;43583;53.132;6.574;2023-03-01T05:56:45;-4.40;99.90
57753;DHT22;43583;53.132;6.574;2023-03-01T05:59:11;-4.40;99.90
57753;DHT22;43583;53.132;6.574;2023-03-01T06:01:37;-4.40;99.90
57753;DHT22;43583;53.132;6.574;2023-03-01T06:04:03;-4.40;99.90
57753;DHT22;43583;53.132;6.574;2023-03-01T06:06:32;-4.40;99.90
57753;DHT22;43583;53.132;6.574;2023-03-01T06:08:58;-4.50;99.90
57753;DHT22;43583;53.132;6.574;2023-03-01T06:11:24;-4.50;99.90
57753;DHT22;43583;53.132;6.574;2023-03-01T06:13:49;-4.50;99.90
57753;DHT22;43583;53.132;6.574;2023-03-01T06:16:15;-4.50;99.90
57753;DHT22;43583;53.132;6.574;2023-03-01T06:18:40;-4.50;99.90
57753;DHT22;43583;53.132;6.574;2023-03-01T06:21:07;-4.50;99.90
57753;DHT22;43583;53.132;6.574;2023-03-01T06:23:33;-4.50;99.90
57753;DHT22;43583;53.132;6.574;2023-03-01T06:25:58;-4.50;99.90
57753;DHT22;43583;53.132;6.574;2023-03-01T06:28:24;-4.60;99.90
57753;DHT22;43583;53.132;6.574;2023-03-01T06:30:50;-4.50;99.90
57753;DHT22;43583;53.132;6.574;2023-03-01T06:33:17;-4.50;99.90
57753;DHT22;43583;53.132;6.574;2023-03-01T06:35:44;-4.50;99.90
57753;DHT22;43583;53.132;6.574;2023-03-01T06:38:10;-4.40;99.90
57753;DHT22;43583;53.132;6.574;2023-03-01T06:40:35;-4.40;99.90
57753;DHT22;43583;53.132;6.574;2023-03-01T06:43:01;-4.30;99.90
57753;DHT22;43583;53.132;6.574;2023-03-01T06:45:27;-4.30;99.90
57753;DHT22;43583;53.132;6.574;2023-03-01T06:47:52;-4.30;99.90
57753;DHT22;43583;53.132;6.574;2023-03-01T06:50:26;-4.20;99.90
57753;DHT22;43583;53.132;6.574;2023-03-01T06:52:55;-4.20;99.90
57753;DHT22;43583;53.132;6.574;2023-03-01T06:55:21;-4.10;99.90
57753;DHT22;43583;53.132;6.574;2023-03-01T06:57:47;-4.00;99.90
57753;DHT22;43583;53.132;6.574;2023-03-01T07:00:13;-3.90;99.90
57753;DHT22;43583;53.132;6.574;2023-03-01T07:02:39;-3.90;99.90
57753;DHT22;43583;53.132;6.574;2023-03-01T07:05:04;-3.80;99.90
57753;DHT22;43583;53.132;6.574;2023-03-01T07:07:30;-3.70;99.90
57753;DHT22;43583;53.132;6.574;2023-03-01T07:09:56;-3.60;99.90
57753;DHT22;43583;53.132;6.574;2023-03-01T07:12:21;-3.50;99.90
57753;DHT22;43583;53.132;6.574;2023-03-01T07:14:47;-3.40;99.90
57753;DHT22;43583;53.132;6.574;2023-03-01T07:17:13;-3.30;99.90
57753;DHT22;43583;53.132;6.574;2023-03-01T07:19:38;-3.20;99.90
57753;DHT22;43583;53.132;6.574;2023-03-01T07:22:04;-3.10;99.90
57753;DHT22;43583;53.132;6.574;2023-03-01T07:24:33;-2.90;99.90
57753;DHT22;43583;53.132;6.574;2023-03-01T07:26:58;-2.80;99.90
57753;DHT22;43583;53.132;6.574;2023-03-01T07:29:24;-2.60;99.90
57753;DHT22;43583;53.132;6.574;2023-03-01T07:31:49;-2.50;99.90
57753;DHT22;43583;53.132;6.574;2023-03-01T07:34:15;-2.30;99.90
57753;DHT22;43583;53.132;6.574;2023-03-01T07:36:41;-2.20;99.90
57753;DHT22;43583;53.132;6.574;2023-03-01T07:39:09;-2.00;99.90
57753;DHT22;43583;53.132;6.574;2023-03-01T07:41:35;-1.80;99.90
57753;DHT22;43583;53.132;6.574;2023-03-01T07:44:00;-1.60;99.90
57753;DHT22;43583;53.132;6.574;2023-03-01T07:46:26;-1.40;99.90
57753;DHT22;43583;53.132;6.574;2023-03-01T07:48:51;-1.20;99.90
57753;DHT22;43583;53.132;6.574;2023-03-01T07:51:17;-1.00;99.90
57753;DHT22;43583;53.132;6.574;2023-03-01T07:53:46;-0.80;99.90
57753;DHT22;43583;53.132;6.574;2023-03-01T07:56:13;-0.60;99.90
57753;DHT22;43583;53.132;6.574;2023-03-01T07:58:43;-0.40;99.90
57753;DHT22;43583;53.132;6.574;2023-03-01T08:01:15;-0.20;99.90
57753;DHT22;43583;53.132;6.574;2023-03-01T08:03:41;0.00;99.90
57753;DHT22;43583;53.132;6.574;2023-03-01T08:06:09;0.20;99.90
57753;DHT22;43583;53.132;6.574;2023-03-01T08:08:35;0.40;99.90
57753;DHT22;43583;53.132;6.574;2023-03-01T08:11:02;0.70;99.90
57753;DHT22;43583;53.132;6.574;2023-03-01T08:13:28;1.60;99.90
57753;DHT22;43583;53.132;6.574;2023-03-01T08:15:54;2.70;99.90
57753;DHT22;43583;53.132;6.574;2023-03-01T08:18:20;3.80;99.90
57753;DHT22;43583;53.132;6.574;2023-03-01T08:20:47;4.70;99.90
57753;DHT22;43583;53.132;6.574;2023-03-01T08:23:13;5.20;99.90
57753;DHT22;43583;53.132;6.574;2023-03-01T08:25:39;5.50;99.90
57753;DHT22;43583;53.132;6.574;2023-03-01T08:28:05;6.30;99.90
57753;DHT22;43583;53.132;6.574;2023-03-01T08:30:31;7.00;99.90
57753;DHT22;43583;53.132;6.574;2023-03-01T08:32:56;7.30;99.90
57753;DHT22;43583;53.132;6.574;2023-03-01T08:35:22;7.60;99.90
57753;DHT22;43583;53.132;6.574;2023-03-01T08:37:48;8.00;99.90
57753;DHT22;43583;53.132;6.574;2023-03-01T08:40:14;8.50;99.90
57753;DHT22;43583;53.132;6.574;2023-03-01T08:42:41;8.90;99.90
57753;DHT22;43583;53.132;6.574;2023-03-01T08:45:08;9.20;99.90
57753;DHT22;43583;53.132;6.574;2023-03-01T08:47:34;9.50;99.90
57753;DHT22;43583;53.132;6.574;2023-03-01T08:50:00;9.90;99.90
57753;DHT22;43583;53.132;6.574;2023-03-01T08:52:26;10.30;99.90
57753;DHT22;43583;53.132;6.574;2023-03-01T08:54:52;10.60;99.90
57753;DHT22;43583;53.132;6.574;2023-03-01T08:57:17;10.90;99.90
57753;DHT22;43583;53.132;6.574;2023-03-01T08:59:43;10.90;99.90
57753;DHT22;43583;53.132;6.574;2023-03-01T09:02:12;11.10;99.90
57753;DHT22;43583;53.132;6.574;2023-03-01T09:04:39;11.20;99.90
57753;DHT22;43583;53.132;6.574;2023-03-01T09:07:06;11.40;99.90
57753;DHT22;43583;53.132;6.574;2023-03-01T09:09:32;11.70;99.90
57753;DHT22;43583;53.132;6.574;2023-03-01T09:11:57;11.90;99.90
57753;DHT22;43583;53.132;6.574;2023-03-01T09:14:23;12.00;99.90
57753;DHT22;43583;53.132;6.574;2023-03-01T09:16:48;12.10;99.90
57753;DHT22;43583;53.132;6.574;2023-03-01T09:19:14;11.90;99.90
57753;DHT22;43583;53.132;6.574;2023-03-01T09:21:40;11.80;99.90
57753;DHT22;43583;53.132;6.574;2023-03-01T09:24:11;11.90;99.90
57753;DHT22;43583;53.132;6.574;2023-03-01T09:26:37;12.10;99.90
57753;DHT22;43583;53.132;6.574;2023-03-01T09:29:03;12.10;99.90
57753;DHT22;43583;53.132;6.574;2023-03-01T09:31:28;12.20;99.90
57753;DHT22;43583;53.132;6.574;2023-03-01T09:33:54;12.40;99.90
57753;DHT22;43583;53.132;6.574;2023-03-01T09:36:22;12.40;99.70
57753;DHT22;43583;53.132;6.574;2023-03-01T09:38:49;12.60;99.20
57753;DHT22;43583;53.132;6.574;2023-03-01T09:44:08;12.70;98.20
57753;DHT22;43583;53.132;6.574;2023-03-01T09:46:40;13.00;97.40
57753;DHT22;43583;53.132;6.574;2023-03-01T09:49:14;12.70;96.60
57753;DHT22;43583;53.132;6.574;2023-03-01T09:51:42;12.40;96.20
57753;DHT22;43583;53.132;6.574;2023-03-01T09:54:11;12.00;95.70
57753;DHT22;43583;53.132;6.574;2023-03-01T09:56:40;11.80;96.20
57753;DHT22;43583;53.132;6.574;2023-03-01T10:01:50;10.90;96.90
57753;DHT22;43583;53.132;6.574;2023-03-01T10:04:48;10.50;97.40
57753;DHT22;43583;53.132;6.574;2023-03-01T10:07:41;10.10;97.40
57753;DHT22;43583;53.132;6.574;2023-03-01T10:10:33;9.50;97.40
57753;DHT22;43583;53.132;6.574;2023-03-01T10:13:13;9.10;98.70
57753;DHT22;43583;53.132;6.574;2023-03-01T10:15:50;8.70;99.20
57753;DHT22;43583;53.132;6.574;2023-03-01T10:18:28;8.40;99.40
57753;DHT22;43583;53.132;6.574;2023-03-01T10:20:57;8.30;99.90
57753;DHT22;43583;53.132;6.574;2023-03-01T10:23:28;8.00;99.30
57753;DHT22;43583;53.132;6.574;2023-03-01T10:26:29;8.00;99.90
57753;DHT22;43583;53.132;6.574;2023-03-01T10:29:03;7.80;99.90
57753;DHT22;43583;53.132;6.574;2023-03-01T10:34:11;7.60;99.90
57753;DHT22;43583;53.132;6.574;2023-03-01T10:36:39;7.50;99.90
57753;DHT22;43583;53.132;6.574;2023-03-01T10:39:16;7.40;99.90
57753;DHT22;43583;53.132;6.574;2023-03-01T10:42:00;7.40;99.80
57753;DHT22;43583;53.132;6.574;2023-03-01T10:44:42;7.40;99.90
57753;DHT22;43583;53.132;6.574;2023-03-01T10:47:20;7.40;99.90
57753;DHT22;43583;53.132;6.574;2023-03-01T10:49:53;7.40;99.90
57753;DHT22;43583;53.132;6.574;2023-03-01T10:52:21;7.50;99.90
57753;DHT22;43583;53.132;6.574;2023-03-01T10:54:54;7.40;99.90
57753;DHT22;43583;53.132;6.574;2023-03-01T10:57:39;7.40;99.90
57753;DHT22;43583;53.132;6.574;2023-03-01T11:00:24;7.40;99.90
57753;DHT22;43583;53.132;6.574;2023-03-01T11:03:01;7.40;99.90
57753;DHT22;43583;53.132;6.574;2023-03-01T11:05:28;7.40;99.90
57753;DHT22;43583;53.132;6.574;2023-03-01T11:07:58;7.30;99.90
57753;DHT22;43583;53.132;6.574;2023-03-01T11:10:35;7.30;99.50
57753;DHT22;43583;53.132;6.574;2023-03-01T11:13:13;7.20;99.00
57753;DHT22;43583;53.132;6.574;2023-03-01T11:15:40;7.40;99.90
57753;DHT22;43583;53.132;6.574;2023-03-01T11:18:22;7.50;99.90
57753;DHT22;43583;53.132;6.574;2023-03-01T11:20:49;7.50;99.80
57753;DHT22;43583;53.132;6.574;2023-03-01T11:23:16;7.50;99.40
57753;DHT22;43583;53.132;6.574;2023-03-01T11:26:05;7.40;99.60
57753;DHT22;43583;53.132;6.574;2023-03-01T11:28:29;7.30;98.40
57753;DHT22;43583;53.132;6.574;2023-03-01T11:31:06;7.40;99.90
57753;DHT22;43583;53.132;6.574;2023-03-01T11:36:59;7.50;99.90
57753;DHT22;43583;53.132;6.574;2023-03-01T11:39:39;7.40;99.90
57753;DHT22;43583;53.132;6.574;2023-03-01T11:42:20;7.40;99.10
57753;DHT22;43583;53.132;6.574;2023-03-01T11:44:52;7.40;99.20
57753;DHT22;43583;53.132;6.574;2023-03-01T11:47:42;7.50;99.10
57753;DHT22;43583;53.132;6.574;2023-03-01T11:50:42;7.50;99.20
57753;DHT22;43583;53.132;6.574;2023-03-01T11:53:35;7.60;99.90
57753;DHT22;43583;53.132;6.574;2023-03-01T12:01:26;7.70;99.60
57753;DHT22;43583;53.132;6.574;2023-03-01T12:06:45;7.80;99.90
57753;DHT22;43583;53.132;6.574;2023-03-01T12:09:38;7.80;99.90
57753;DHT22;43583;53.132;6.574;2023-03-01T12:12:33;7.90;99.90
57753;DHT22;43583;53.132;6.574;2023-03-01T12:15:37;7.90;99.90
57753;DHT22;43583;53.132;6.574;2023-03-01T12:21:28;7.90;99.90
57753;DHT22;43583;53.132;6.574;2023-03-01T12:24:23;7.90;99.90
57753;DHT22;43583;53.132;6.574;2023-03-01T12:30:03;8.00;99.90
57753;DHT22;43583;53.132;6.574;2023-03-01T12:35:34;7.90;99.70
57753;DHT22;43583;53.132;6.574;2023-03-01T12:41:11;7.80;99.90
57753;DHT22;43583;53.132;6.574;2023-03-01T12:43:54;7.80;99.90
57753;DHT22;43583;53.132;6.574;2023-03-01T12:49:25;7.90;99.90
57753;DHT22;43583;53.132;6.574;2023-03-01T12:52:01;7.90;99.90
57753;DHT22;43583;53.132;6.574;2023-03-01T12:54:33;7.80;99.90
57753;DHT22;43583;53.132;6.574;2023-03-01T12:57:10;7.90;99.90
57753;DHT22;43583;53.132;6.574;2023-03-01T12:59:49;7.90;99.90
57753;DHT22;43583;53.132;6.574;2023-03-01T13:02:25;8.00;99.90
57753;DHT22;43583;53.132;6.574;2023-03-01T13:17:54;7.90;99.20
57753;DHT22;43583;53.132;6.574;2023-03-01T13:20:24;7.90;99.10
57753;DHT22;43583;53.132;6.574;2023-03-01T13:23:02;7.80;99.00
57753;DHT22;43583;53.132;6.574;2023-03-01T13:25:28;7.90;99.40
57753;DHT22;43583;53.132;6.574;2023-03-01T13:30:54;7.90;99.00
57753;DHT22;43583;53.132;6.574;2023-03-01T13:35:52;7.90;99.50
57753;DHT22;43583;53.132;6.574;2023-03-01T13:38:47;8.00;99.90
57753;DHT22;43583;53.132;6.574;2023-03-01T13:41:15;8.00;99.70
57753;DHT22;43583;53.132;6.574;2023-03-01T13:43:42;8.00;99.90
57753;DHT22;43583;53.132;6.574;2023-03-01T13:46:21;8.00;99.90
57753;DHT22;43583;53.132;6.574;2023-03-01T13:48:53;8.00;99.90
57753;DHT22;43583;53.132;6.574;2023-03-01T13:51:24;8.10;99.90
57753;DHT22;43583;53.132;6.574;2023-03-01T13:53:51;8.10;99.90
57753;DHT22;43583;53.132;6.574;2023-03-01T13:56:26;8.10;99.90
57753;DHT22;43583;53.132;6.574;2023-03-01T13:59:01;8.10;99.90
57753;DHT22;43583;53.132;6.574;2023-03-01T14:01:31;8.10;99.90
57753;DHT22;43583;53.132;6.574;2023-03-01T14:03:58;8.00;99.90
57753;DHT22;43583;53.132;6.574;2023-03-01T14:06:29;8.00;99.90
57753;DHT22;43583;53.132;6.574;2023-03-01T14:09:23;8.00;99.90
57753;DHT22;43583;53.132;6.574;2023-03-01T14:11:56;7.90;99.90
57753;DHT22;43583;53.132;6.574;2023-03-01T14:14:48;7.80;99.90
57753;DHT22;43583;53.132;6.574;2023-03-01T14:17:23;7.80;99.90
57753;DHT22;43583;53.132;6.574;2023-03-01T14:20:07;7.90;99.90
57753;DHT22;43583;53.132;6.574;2023-03-01T14:22:35;7.90;99.90
57753;DHT22;43583;53.132;6.574;2023-03-01T14:25:04;8.00;99.90
57753;DHT22;43583;53.132;6.574;2023-03-01T14:27:36;7.90;99.90
57753;DHT22;43583;53.132;6.574;2023-03-01T14:30:19;8.00;99.90
57753;DHT22;43583;53.132;6.574;2023-03-01T14:32:57;8.00;99.90
57753;DHT22;43583;53.132;6.574;2023-03-01T14:35:32;8.00;99.90
57753;DHT22;43583;53.132;6.574;2023-03-01T14:37:58;8.00;99.90
57753;DHT22;43583;53.132;6.574;2023-03-01T14:40:35;8.00;99.90
57753;DHT22;43583;53.132;6.574;2023-03-01T14:43:09;8.00;99.90
57753;DHT22;43583;53.132;6.574;2023-03-01T14:45:35;7.90;99.90
57753;DHT22;43583;53.132;6.574;2023-03-01T14:48:02;7.80;99.90
57753;DHT22;43583;53.132;6.574;2023-03-01T14:50:31;7.80;99.90
57753;DHT22;43583;53.132;6.574;2023-03-01T14:53:00;7.80;99.90
57753;DHT22;43583;53.132;6.574;2023-03-01T14:55:41;7.70;99.90
57753;DHT22;43583;53.132;6.574;2023-03-01T14:58:17;7.70;99.90
57753;DHT22;43583;53.132;6.574;2023-03-01T15:00:56;7.70;99.90
57753;DHT22;43583;53.132;6.574;2023-03-01T15:05:51;7.60;99.90
57753;DHT22;43583;53.132;6.574;2023-03-01T15:08:21;7.60;99.90
57753;DHT22;43583;53.132;6.574;2023-03-01T15:13:39;7.70;99.90
57753;DHT22;43583;53.132;6.574;2023-03-01T15:16:34;7.60;99.90
57753;DHT22;43583;53.132;6.574;2023-03-01T15:19:01;7.60;99.90
57753;DHT22;43583;53.132;6.574;2023-03-01T15:21:32;7.60;99.90
57753;DHT22;43583;53.132;6.574;2023-03-01T15:24:16;7.60;99.90
57753;DHT22;43583;53.132;6.574;2023-03-01T15:29:23;7.50;99.90
57753;DHT22;43583;53.132;6.574;2023-03-01T15:32:00;7.50;99.90
57753;DHT22;43583;53.132;6.574;2023-03-01T15:34:29;7.40;99.90
57753;DHT22;43583;53.132;6.574;2023-03-01T15:36:58;7.40;99.90
57753;DHT22;43583;53.132;6.574;2023-03-01T15:39:34;7.40;99.90
57753;DHT22;43583;53.132;6.574;2023-03-01T15:42:05;7.40;99.90
57753;DHT22;43583;53.132;6.574;2023-03-01T15:44:35;7.30;99.90
57753;DHT22;43583;53.132;6.574;2023-03-01T15:47:04;7.30;99.90
57753;DHT22;43583;53.132;6.574;2023-03-01T15:49:40;7.30;99.90
57753;DHT22;43583;53.132;6.574;2023-03-01T15:52:21;7.30;99.90
57753;DHT22;43583;53.132;6.574;2023-03-01T15:55:03;7.20;99.90
57753;DHT22;43583;53.132;6.574;2023-03-01T15:57:29;7.20;99.90
57753;DHT22;43583;53.132;6.574;2023-03-01T15:59:55;7.10;99.90
57753;DHT22;43583;53.132;6.574;2023-03-01T16:02:22;7.10;99.90
57753;DHT22;43583;53.132;6.574;2023-03-01T16:04:48;7.00;99.90
57753;DHT22;43583;53.132;6.574;2023-03-01T16:07:14;7.00;99.90
57753;DHT22;43583;53.132;6.574;2023-03-01T16:09:40;7.00;99.90
57753;DHT22;43583;53.132;6.574;2023-03-01T16:12:08;6.90;99.90
57753;DHT22;43583;53.132;6.574;2023-03-01T16:14:35;6.80;99.90
57753;DHT22;43583;53.132;6.574;2023-03-01T16:17:00;6.80;99.90
57753;DHT22;43583;53.132;6.574;2023-03-01T16:19:26;6.80;99.90
57753;DHT22;43583;53.132;6.574;2023-03-01T16:21:51;6.80;99.90
57753;DHT22;43583;53.132;6.574;2023-03-01T16:24:17;6.80;99.90
57753;DHT22;43583;53.132;6.574;2023-03-01T16:26:42;6.70;99.90
57753;DHT22;43583;53.132;6.574;2023-03-01T16:29:08;6.60;99.90
57753;DHT22;43583;53.132;6.574;2023-03-01T16:31:34;6.60;99.90
57753;DHT22;43583;53.132;6.574;2023-03-01T16:33:59;6.60;99.90
57753;DHT22;43583;53.132;6.574;2023-03-01T16:36:26;6.50;99.90
57753;DHT22;43583;53.132;6.574;2023-03-01T16:38:54;6.50;99.90
57753;DHT22;43583;53.132;6.574;2023-03-01T16:41:21;6.40;99.90
57753;DHT22;43583;53.132;6.574;2023-03-01T16:43:48;6.30;99.90
57753;DHT22;43583;53.132;6.574;2023-03-01T16:46:16;6.20;99.90
57753;DHT22;43583;53.132;6.574;2023-03-01T16:48:43;6.10;99.90
57753;DHT22;43583;53.132;6.574;2023-03-01T16:51:09;6.10;99.90
57753;DHT22;43583;53.132;6.574;2023-03-01T16:53:35;6.00;99.90
57753;DHT22;43583;53.132;6.574;2023-03-01T16:56:02;5.90;99.90
57753;DHT22;43583;53.132;6.574;2023-03-01T16:58:28;5.90;99.90
57753;DHT22;43583;53.132;6.574;2023-03-01T17:00:54;5.80;99.90